createdAt,value
2023-02-22T00:01:47.453Z,5.28
2023-02-22T00:04:16.088Z,5.24
2023-02-22T00:06:42.693Z,5.26
2023-02-22T00:09:10.354Z,5.27
2023-02-22T00:11:38.649Z,5.30
2023-02-22T00:14:05.659Z,5.32
2023-02-22T00:16:32.258Z,5.33
2023-02-22T00:18:58.891Z,5.34
2023-02-22T00:21:25.424Z,5.34
2023-02-22T00:23:54.675Z,5.32
2023-02-22T00:26:23.463Z,5.33
2023-02-22T00:28:52.567Z,5.34
2023-02-22T00:31:20.306Z,5.31
2023-02-22T00:33:47.113Z,5.29
2023-02-22T00:36:14.529Z,5.27
2023-02-22T00:38:42.142Z,5.25
2023-02-22T00:41:09.101Z,5.24
2023-02-22T00:43:35.945Z,5.24
2023-02-22T00:46:02.717Z,5.22
2023-02-22T00:48:29.400Z,5.20
2023-02-22T00:50:56.033Z,5.16
2023-02-22T00:53:25.139Z,5.14
2023-02-22T00:55:52.042Z,5.12
2023-02-22T00:58:18.761Z,5.11
2023-02-22T01:00:45.829Z,5.09
2023-02-22T01:03:15.041Z,5.08
2023-02-22T01:05:42.110Z,5.02
2023-02-22T01:08:11.408Z,4.99
2023-02-22T01:10:39.365Z,4.95
2023-02-22T01:13:09.249Z,4.91
2023-02-22T01:15:39.137Z,4.86
2023-02-22T01:18:06.626Z,4.84
2023-02-22T01:20:33.361Z,4.84
2023-02-22T01:23:03.467Z,4.83
2023-02-22T01:25:31.378Z,4.81
2023-02-22T01:27:59.691Z,4.80
2023-02-22T01:30:29.690Z,4.78
2023-02-22T01:32:56.407Z,4.79
2023-02-22T01:35:27.890Z,4.76
2023-02-22T01:37:55.582Z,4.73
2023-02-22T01:40:42.001Z,4.71
2023-02-22T01:43:20.290Z,4.71
2023-02-22T01:45:52.583Z,4.71
2023-02-22T01:48:45.242Z,4.69
2023-02-22T01:51:19.262Z,4.70
2023-02-22T01:54:08.034Z,4.69
2023-02-22T01:56:38.693Z,4.70
2023-02-22T01:59:11.643Z,4.67
2023-02-22T02:01:39.885Z,4.69
2023-02-22T02:04:11.849Z,4.69
2023-02-22T02:06:38.787Z,4.60
2023-02-22T02:09:11.609Z,4.63
2023-02-22T02:11:43.108Z,4.66
2023-02-22T02:14:11.606Z,4.63
2023-02-22T02:16:53.351Z,4.61
2023-02-22T02:19:32.588Z,4.60
2023-02-22T02:22:29.853Z,4.55
2023-02-22T02:25:10.885Z,4.53
2023-02-22T02:27:52.830Z,4.53
2023-02-22T02:30:47.256Z,4.50
2023-02-22T02:33:29.403Z,4.51
2023-02-22T02:35:58.757Z,4.47
2023-02-22T02:38:45.980Z,4.50
2023-02-22T02:41:21.754Z,4.52
2023-02-22T02:43:57.835Z,4.52
2023-02-22T02:46:30.787Z,4.52
2023-02-22T02:49:01.435Z,4.52
2023-02-22T02:51:34.004Z,4.53
2023-02-22T02:54:02.561Z,4.54
2023-02-22T02:56:29.998Z,4.54
2023-02-22T02:58:56.807Z,4.56
2023-02-22T03:01:42.042Z,4.58
2023-02-22T03:04:56.335Z,4.55
2023-02-22T03:07:49.730Z,4.54
2023-02-22T03:10:28.223Z,4.56
2023-02-22T03:12:58.622Z,4.57
2023-02-22T03:15:49.846Z,4.58
2023-02-22T03:18:24.737Z,4.56
2023-02-22T03:21:14.284Z,4.55
2023-02-22T03:24:02.056Z,4.53
2023-02-22T03:26:41.419Z,4.50
2023-02-22T03:29:11.222Z,4.52
2023-02-22T03:31:48.484Z,4.50
2023-02-22T03:34:27.181Z,4.50
2023-02-22T03:36:59.743Z,4.48
2023-02-22T03:39:31.313Z,4.48
2023-02-22T03:42:04.740Z,4.44
2023-02-22T03:44:35.075Z,4.41
2023-02-22T03:47:06.715Z,4.40
2023-02-22T03:49:37.385Z,4.38
2023-02-22T03:52:05.167Z,4.37
2023-02-22T03:54:32.656Z,4.34
2023-02-22T03:57:08.532Z,4.31
2023-02-22T03:59:35.592Z,4.31
2023-02-22T04:02:02.210Z,4.27
2023-02-22T04:04:28.850Z,4.25
2023-02-22T04:06:55.495Z,4.21
2023-02-22T04:09:22.101Z,4.20
2023-02-22T04:11:48.747Z,4.19
2023-02-22T04:14:15.976Z,4.18
2023-02-22T04:16:42.717Z,4.17
2023-02-22T04:19:09.389Z,4.17
2023-02-22T04:21:35.936Z,4.15
2023-02-22T04:24:02.509Z,4.15
2023-02-22T04:26:29.120Z,4.13
2023-02-22T04:28:55.704Z,4.13
2023-02-22T04:31:22.277Z,4.12
2023-02-22T04:33:48.935Z,4.10
2023-02-22T04:36:16.147Z,4.08
2023-02-22T04:38:43.409Z,4.06
2023-02-22T04:41:10.001Z,4.02
2023-02-22T04:43:36.576Z,4.00
2023-02-22T04:46:04.444Z,3.97
2023-02-22T04:48:31.310Z,3.96
2023-02-22T04:50:57.879Z,3.95
2023-02-22T04:53:24.513Z,3.94
2023-02-22T04:55:51.077Z,3.93
2023-02-22T04:58:17.725Z,3.92
2023-02-22T05:00:44.444Z,3.91
2023-02-22T05:03:11.051Z,3.91
2023-02-22T05:05:37.812Z,3.90
2023-02-22T05:08:04.673Z,3.90
2023-02-22T05:10:31.335Z,3.88
2023-02-22T05:12:57.908Z,3.86
2023-02-22T05:15:25.407Z,3.86
2023-02-22T05:17:53.299Z,3.85
2023-02-22T05:20:29.638Z,3.81
2023-02-22T05:22:57.748Z,3.80
2023-02-22T05:25:25.216Z,3.78
2023-02-22T05:27:57.839Z,3.75
2023-02-22T05:30:31.249Z,3.75
2023-02-22T05:32:59.486Z,3.76
2023-02-22T05:35:27.493Z,3.75
2023-02-22T05:37:54.361Z,3.74
2023-02-22T05:40:23.464Z,3.75
2023-02-22T05:42:51.049Z,3.75
2023-02-22T05:45:19.632Z,3.75
2023-02-22T05:47:46.891Z,3.74
2023-02-22T05:50:15.702Z,3.70
2023-02-22T05:52:42.664Z,3.69
2023-02-22T05:55:11.407Z,3.69
2023-02-22T05:57:38.002Z,3.67
2023-02-22T06:00:08.361Z,3.72
2023-02-22T06:02:35.061Z,4.55
2023-02-22T06:05:01.655Z,5.43
2023-02-22T06:07:28.208Z,6.14
2023-02-22T06:09:54.798Z,6.48
2023-02-22T06:12:21.484Z,6.42
2023-02-22T06:14:48.064Z,6.55
2023-02-22T06:17:15.594Z,6.70
2023-02-22T06:19:42.316Z,6.83
2023-02-22T06:22:15.816Z,7.00
2023-02-22T06:24:42.488Z,6.78
2023-02-22T06:27:09.075Z,6.33
2023-02-22T06:29:35.673Z,5.92
2023-02-22T06:32:02.328Z,5.54
2023-02-22T06:34:28.944Z,5.22
2023-02-22T06:36:55.508Z,4.98
2023-02-22T06:39:22.198Z,4.79
2023-02-22T06:41:50.560Z,4.63
2023-02-22T06:44:17.195Z,4.50
2023-02-22T06:46:49.351Z,4.38
2023-02-22T06:49:15.947Z,4.27
2023-02-22T06:51:43.066Z,4.20
2023-02-22T06:54:09.603Z,4.11
2023-02-22T06:56:36.159Z,4.00
2023-02-22T06:59:02.958Z,3.94
2023-02-22T07:01:30.066Z,3.92
2023-02-22T07:03:57.037Z,3.90
2023-02-22T07:06:24.296Z,3.90
2023-02-22T07:08:50.881Z,3.89
2023-02-22T07:11:18.010Z,3.87
2023-02-22T07:13:44.716Z,3.88
2023-02-22T07:16:11.295Z,3.88
2023-02-22T07:18:38.742Z,3.90
2023-02-22T07:21:06.307Z,3.91
2023-02-22T07:23:33.355Z,3.91
2023-02-22T07:26:01.492Z,3.93
2023-02-22T07:28:28.446Z,3.96
2023-02-22T07:30:55.248Z,3.95
2023-02-22T07:33:21.845Z,4.00
2023-02-22T07:35:49.951Z,4.07
2023-02-22T07:38:19.773Z,4.13
2023-02-22T07:40:46.814Z,4.16
2023-02-22T07:43:18.058Z,4.18
2023-02-22T07:45:45.839Z,4.21
2023-02-22T07:48:14.644Z,4.25
2023-02-22T07:50:42.260Z,4.29
2023-02-22T07:53:14.684Z,4.33
2023-02-22T07:55:41.307Z,4.38
2023-02-22T07:58:09.261Z,4.40
2023-02-22T08:00:39.411Z,4.46
2023-02-22T08:03:09.291Z,4.50
2023-02-22T08:05:38.228Z,4.54
2023-02-22T08:08:06.247Z,4.61
2023-02-22T08:10:35.161Z,4.68
2023-02-22T08:13:02.310Z,4.76
2023-02-22T08:15:31.773Z,4.82
2023-02-22T08:18:01.014Z,4.88
2023-02-22T08:20:29.146Z,4.97
2023-02-22T08:22:56.609Z,5.06
2023-02-22T08:25:25.919Z,5.13
2023-02-22T08:27:58.746Z,5.22
2023-02-22T08:30:25.894Z,5.30
2023-02-22T08:32:52.564Z,5.37
2023-02-22T08:35:21.090Z,5.44
2023-02-22T08:37:53.433Z,5.49
2023-02-22T08:40:25.051Z,5.55
2023-02-22T08:42:52.100Z,5.66
2023-02-22T08:45:18.721Z,5.74
2023-02-22T08:47:45.613Z,5.81
2023-02-22T08:50:27.702Z,5.87
2023-02-22T08:52:55.474Z,5.90
2023-02-22T08:55:24.477Z,6.06
2023-02-22T08:57:51.081Z,6.19
2023-02-22T09:00:25.364Z,6.29
2023-02-22T09:02:53.019Z,6.41
2023-02-22T09:05:20.396Z,6.55
2023-02-22T09:07:47.532Z,6.68
2023-02-22T09:10:18.153Z,6.81
2023-02-22T09:12:44.835Z,6.88
2023-02-22T09:15:12.493Z,6.96
2023-02-22T09:17:39.269Z,7.04
2023-02-22T09:20:08.110Z,7.17
2023-02-22T09:22:34.694Z,7.31
2023-02-22T09:25:11.280Z,7.43
2023-02-22T09:27:44.073Z,7.57
2023-02-22T09:30:37.350Z,7.61
2023-02-22T09:33:05.943Z,7.65
2023-02-22T09:35:36.305Z,7.66
2023-02-22T09:38:08.193Z,7.70
2023-02-22T09:40:44.853Z,7.78
2023-02-22T09:43:33.849Z,7.83
2023-02-22T09:46:13.453Z,7.90
2023-02-22T09:49:19.500Z,7.93
2023-02-22T09:52:11.954Z,8.01
2023-02-22T09:54:45.126Z,8.10
2023-02-22T09:57:35.174Z,8.19
2023-02-22T10:00:22.737Z,8.30
2023-02-22T10:02:59.406Z,8.46
2023-02-22T10:05:37.948Z,8.57
2023-02-22T10:08:10.237Z,8.65
2023-02-22T10:10:46.033Z,8.79
2023-02-22T10:13:28.106Z,8.98
2023-02-22T10:15:58.386Z,9.13
2023-02-22T10:18:44.048Z,9.29
2023-02-22T10:21:31.905Z,9.42
2023-02-22T10:24:38.411Z,9.49
2023-02-22T10:27:41.688Z,9.61
2023-02-22T10:30:24.915Z,9.73
2023-02-22T10:33:15.863Z,9.82
2023-02-22T10:35:46.919Z,9.95
2023-02-22T10:38:23.651Z,10.06
2023-02-22T10:40:59.286Z,10.20
2023-02-22T10:43:25.909Z,10.33
2023-02-22T10:46:03.685Z,10.48
2023-02-22T10:48:32.777Z,10.69
2023-02-22T10:51:02.166Z,10.88
2023-02-22T10:53:30.600Z,11.01
2023-02-22T10:56:21.388Z,11.13
2023-02-22T10:58:57.585Z,11.33
2023-02-22T11:01:42.195Z,11.48
2023-02-22T11:04:15.967Z,11.62
2023-02-22T11:06:45.944Z,11.80
2023-02-22T11:09:18.850Z,11.99
2023-02-22T11:11:47.387Z,12.20
2023-02-22T11:14:26.368Z,12.33
2023-02-22T11:16:56.878Z,12.45
2023-02-22T11:19:32.873Z,12.47
2023-02-22T11:22:05.628Z,12.60
2023-02-22T11:24:43.574Z,12.74
2023-02-22T11:27:31.746Z,12.93
2023-02-22T11:30:08.562Z,13.13
2023-02-22T11:32:36.557Z,13.35
2023-02-22T11:35:27.843Z,13.52
2023-02-22T11:38:11.811Z,13.70
2023-02-22T11:40:40.172Z,13.83
2023-02-22T11:43:12.136Z,13.96
2023-02-22T11:45:44.231Z,14.06
2023-02-22T11:48:21.033Z,14.16
2023-02-22T11:51:10.086Z,14.27
2023-02-22T11:54:09.127Z,14.48
2023-02-22T11:56:38.108Z,14.68
2023-02-22T11:59:08.149Z,14.84
2023-02-22T12:01:56.983Z,14.77
2023-02-22T12:04:47.697Z,14.65
2023-02-22T12:07:26.384Z,14.61
2023-02-22T12:10:20.077Z,14.55
2023-02-22T12:13:05.121Z,14.59
2023-02-22T12:15:47.663Z,14.68
2023-02-22T12:18:34.071Z,14.69
2023-02-22T12:21:05.623Z,14.70
2023-02-22T12:24:16.471Z,14.79
2023-02-22T12:27:01.348Z,14.89
2023-02-22T12:29:57.801Z,14.89
2023-02-22T12:32:40.508Z,14.90
2023-02-22T12:35:20.826Z,14.95
2023-02-22T12:38:16.889Z,14.96
2023-02-22T12:40:57.113Z,14.91
2023-02-22T12:43:35.269Z,14.90
2023-02-22T12:46:19.000Z,14.88
2023-02-22T12:49:01.327Z,14.83
2023-02-22T12:51:34.026Z,14.74
2023-02-22T12:54:26.048Z,14.71
2023-02-22T12:57:11.344Z,14.61
2023-02-22T12:59:47.114Z,14.51
2023-02-22T13:02:35.907Z,14.40
2023-02-22T13:05:02.745Z,14.31
2023-02-22T13:07:40.167Z,14.23
2023-02-22T13:10:23.771Z,14.18
2023-02-22T13:13:03.841Z,14.14
2023-02-22T13:15:43.068Z,14.10
2023-02-22T13:18:10.696Z,14.13
2023-02-22T13:20:45.690Z,14.18
2023-02-22T13:23:35.451Z,14.23
2023-02-22T13:26:31.669Z,14.32
2023-02-22T13:29:23.157Z,14.39
2023-02-22T13:31:55.988Z,14.46
2023-02-22T13:34:56.858Z,14.50
2023-02-22T13:37:41.835Z,14.55
2023-02-22T13:40:30.256Z,14.57
2023-02-22T13:43:02.663Z,14.53
2023-02-22T13:45:54.049Z,14.47
2023-02-22T13:48:54.117Z,14.42
2023-02-22T13:51:23.554Z,14.43
2023-02-22T13:53:58.579Z,14.45
2023-02-22T13:56:26.725Z,14.43
2023-02-22T13:58:57.284Z,14.35
2023-02-22T14:01:46.380Z,14.25
2023-02-22T14:04:37.186Z,14.18
2023-02-22T14:07:18.717Z,14.16
2023-02-22T14:09:51.312Z,14.11
2023-02-22T14:12:30.179Z,13.99
2023-02-22T14:15:28.597Z,13.92
2023-02-22T14:18:05.072Z,13.90
2023-02-22T14:20:37.153Z,13.86
2023-02-22T14:23:22.114Z,13.84
2023-02-22T14:25:49.924Z,13.92
2023-02-22T14:28:46.227Z,13.88
2023-02-22T14:31:33.235Z,13.88
2023-02-22T14:34:14.175Z,13.78
2023-02-22T14:37:02.065Z,13.72
2023-02-22T14:39:52.022Z,13.72
2023-02-22T14:42:33.095Z,13.75
2023-02-22T14:45:05.889Z,13.79
2023-02-22T14:47:39.940Z,13.81
2023-02-22T14:50:23.236Z,13.77
2023-02-22T14:53:01.747Z,13.70
2023-02-22T14:55:31.503Z,13.70
2023-02-22T14:58:08.813Z,13.66
2023-02-22T15:00:42.064Z,13.64
2023-02-22T15:03:37.329Z,13.56
2023-02-22T15:06:15.054Z,13.58
2023-02-22T15:08:42.751Z,13.55
2023-02-22T15:11:21.091Z,13.50
2023-02-22T15:13:53.861Z,13.48
2023-02-22T15:16:23.303Z,13.47
2023-02-22T15:18:55.527Z,13.44
2023-02-22T15:21:26.227Z,13.42
2023-02-22T15:23:55.836Z,13.42
2023-02-22T15:26:31.560Z,13.44
2023-02-22T15:28:59.668Z,13.47
2023-02-22T15:31:26.308Z,13.40
2023-02-22T15:33:54.886Z,13.36
2023-02-22T15:36:27.005Z,13.31
2023-02-22T15:38:55.833Z,13.22
2023-02-22T15:41:31.582Z,13.17
2023-02-22T15:44:07.990Z,13.16
2023-02-22T15:46:40.759Z,13.17
2023-02-22T15:49:10.282Z,13.19
2023-02-22T15:51:40.440Z,13.19
2023-02-22T15:54:13.300Z,13.19
2023-02-22T15:56:55.549Z,13.14
2023-02-22T15:59:33.325Z,13.13
2023-02-22T16:02:00.600Z,13.08
2023-02-22T16:04:30.868Z,13.08
2023-02-22T16:07:08.154Z,13.01
2023-02-22T16:09:34.879Z,13.00
2023-02-22T16:12:24.791Z,12.96
2023-02-22T16:14:54.472Z,12.93
2023-02-22T16:17:35.364Z,12.89
2023-02-22T16:20:21.887Z,12.87
2023-02-22T16:22:49.863Z,12.86
2023-02-22T16:25:19.617Z,12.82
2023-02-22T16:28:09.787Z,12.80
2023-02-22T16:30:40.362Z,12.83
2023-02-22T16:33:13.810Z,12.79
2023-02-22T16:35:41.047Z,12.74
2023-02-22T16:38:16.897Z,12.72
2023-02-22T16:40:55.723Z,12.65
2023-02-22T16:43:25.265Z,12.67
2023-02-22T16:45:53.254Z,12.66
2023-02-22T16:48:27.512Z,12.63
2023-02-22T16:50:56.909Z,12.61
2023-02-22T16:53:25.512Z,12.61
2023-02-22T16:55:57.703Z,12.61
2023-02-22T16:58:29.331Z,12.64
2023-02-22T17:00:57.444Z,12.66
2023-02-22T17:03:25.397Z,12.62
2023-02-22T17:05:52.460Z,12.63
2023-02-22T17:08:19.086Z,12.67
2023-02-22T17:10:46.453Z,12.63
2023-02-22T17:13:23.588Z,12.63
2023-02-22T17:15:51.315Z,12.62
2023-02-22T17:18:22.931Z,12.60
2023-02-22T17:20:51.485Z,12.60
2023-02-22T17:23:19.072Z,12.60
2023-02-22T17:25:50.387Z,12.60
2023-02-22T17:28:17.274Z,12.58
2023-02-22T17:30:45.318Z,12.59
2023-02-22T17:33:16.509Z,12.55
2023-02-22T17:35:44.100Z,12.54
2023-02-22T17:38:10.834Z,12.50
2023-02-22T17:40:39.792Z,12.43
2023-02-22T17:43:08.877Z,12.40
2023-02-22T17:45:39.093Z,12.35
2023-02-22T17:48:05.977Z,12.33
2023-02-22T17:50:32.664Z,12.28
2023-02-22T17:53:01.993Z,12.26
2023-02-22T17:55:28.652Z,12.22
2023-02-22T17:58:00.252Z,12.20
2023-02-22T18:00:33.187Z,12.18
2023-02-22T18:03:07.864Z,12.16
2023-02-22T18:05:40.613Z,12.16
2023-02-22T18:08:07.835Z,12.15
2023-02-22T18:10:34.749Z,12.13
2023-02-22T18:13:02.090Z,12.11
2023-02-22T18:15:29.155Z,12.11
2023-02-22T18:17:56.094Z,12.09
2023-02-22T18:20:31.134Z,12.08
2023-02-22T18:22:59.051Z,12.09
2023-02-22T18:25:27.219Z,12.08
2023-02-22T18:27:55.013Z,12.06
2023-02-22T18:30:21.918Z,12.04
2023-02-22T18:32:48.504Z,11.99
2023-02-22T18:35:15.140Z,11.97
2023-02-22T18:37:41.772Z,11.92
2023-02-22T18:40:10.537Z,11.90
2023-02-22T18:42:39.163Z,11.89
2023-02-22T18:45:07.368Z,11.86
2023-02-22T18:47:42.733Z,11.83
2023-02-22T18:50:11.775Z,11.82
2023-02-22T18:52:45.786Z,11.82
2023-02-22T18:55:19.929Z,11.81
2023-02-22T18:57:47.031Z,11.81
2023-02-22T19:00:16.704Z,11.79
2023-02-22T19:02:43.658Z,11.82
2023-02-22T19:05:17.378Z,11.82
2023-02-22T19:07:45.004Z,11.83
2023-02-22T19:10:11.608Z,11.83
2023-02-22T19:12:38.263Z,11.81
2023-02-22T19:15:05.060Z,11.82
2023-02-22T19:17:32.611Z,11.81
2023-02-22T19:19:59.205Z,11.81
2023-02-22T19:22:32.786Z,11.77
2023-02-22T19:25:01.264Z,11.78
2023-02-22T19:27:34.164Z,11.77
2023-02-22T19:30:00.801Z,11.77
2023-02-22T19:32:27.430Z,11.75
2023-02-22T19:35:02.234Z,11.74
2023-02-22T19:37:34.927Z,11.73
2023-02-22T19:40:06.627Z,11.68
2023-02-22T19:42:33.230Z,11.68
2023-02-22T19:44:59.848Z,11.66
2023-02-22T19:47:26.436Z,11.67
2023-02-22T19:49:53.323Z,11.66
2023-02-22T19:52:19.876Z,11.65
2023-02-22T19:54:46.442Z,11.65
2023-02-22T19:57:13.465Z,11.63
2023-02-22T19:59:40.304Z,11.63
2023-02-22T20:02:10.487Z,11.63
2023-02-22T20:04:37.418Z,11.61
2023-02-22T20:07:04.082Z,11.59
2023-02-22T20:09:39.389Z,11.57
2023-02-22T20:12:06.706Z,11.54
2023-02-22T20:14:34.188Z,11.52
2023-02-22T20:17:01.558Z,11.51
2023-02-22T20:19:28.642Z,11.51
2023-02-22T20:21:56.002Z,11.51
2023-02-22T20:24:23.792Z,11.50
2023-02-22T20:26:51.031Z,11.51
2023-02-22T20:29:18.010Z,11.48
2023-02-22T20:31:49.883Z,11.49
2023-02-22T20:34:16.502Z,11.48
2023-02-22T20:36:43.163Z,11.48
2023-02-22T20:39:13.542Z,11.49
2023-02-22T20:41:46.187Z,11.48
2023-02-22T20:44:15.414Z,11.48
2023-02-22T20:46:43.412Z,11.49
2023-02-22T20:49:13.607Z,11.49
2023-02-22T20:51:40.814Z,11.50
2023-02-22T20:54:10.483Z,11.52
2023-02-22T20:56:38.576Z,11.49
2023-02-22T20:59:05.390Z,11.48
2023-02-22T21:01:32.415Z,11.47
2023-02-22T21:04:03.680Z,11.47
2023-02-22T21:06:31.018Z,11.47
2023-02-22T21:09:00.112Z,11.47
2023-02-22T21:11:30.431Z,11.47
2023-02-22T21:13:57.343Z,11.48
2023-02-22T21:16:27.052Z,11.47
2023-02-22T21:18:56.309Z,11.45
2023-02-22T21:21:22.828Z,11.43
2023-02-22T21:23:51.772Z,11.44
2023-02-22T21:26:23.586Z,11.42
2023-02-22T21:28:51.860Z,11.42
2023-02-22T21:31:21.796Z,11.42
2023-02-22T21:33:53.123Z,11.42
2023-02-22T21:36:25.110Z,11.42
2023-02-22T21:38:57.236Z,11.40
2023-02-22T21:41:27.816Z,11.40
2023-02-22T21:43:56.090Z,11.41
2023-02-22T21:46:23.880Z,11.43
2023-02-22T21:48:50.854Z,11.41
2023-02-22T21:51:19.745Z,11.40
2023-02-22T21:53:52.248Z,11.41
2023-02-22T21:56:24.207Z,11.40
2023-02-22T21:58:59.278Z,11.32
2023-02-22T22:01:31.556Z,11.37
2023-02-22T22:04:00.046Z,11.31
2023-02-22T22:06:28.253Z,11.36
2023-02-22T22:08:54.945Z,11.36
2023-02-22T22:11:22.085Z,11.37
2023-02-22T22:13:49.207Z,11.36
2023-02-22T22:16:19.406Z,11.36
2023-02-22T22:18:46.878Z,11.35
2023-02-22T22:21:17.470Z,11.32
2023-02-22T22:23:47.037Z,11.26
2023-02-22T22:26:16.375Z,11.23
2023-02-22T22:28:46.307Z,11.20
2023-02-22T22:31:14.170Z,11.18
2023-02-22T22:33:42.520Z,11.20
2023-02-22T22:36:10.834Z,11.18
2023-02-22T22:38:40.905Z,11.20
2023-02-22T22:41:09.623Z,11.17
2023-02-22T22:43:37.544Z,11.17
2023-02-22T22:46:06.040Z,11.18
2023-02-22T22:48:36.217Z,11.21
2023-02-22T22:51:09.357Z,11.19
2023-02-22T22:53:41.739Z,11.19
2023-02-22T22:56:14.582Z,11.23
2023-02-22T22:58:44.006Z,11.22
2023-02-22T23:01:18.271Z,11.20
2023-02-22T23:03:55.097Z,11.21
2023-02-22T23:06:27.746Z,11.22
2023-02-22T23:09:00.075Z,11.24
2023-02-22T23:11:29.501Z,11.24
2023-02-22T23:13:56.601Z,11.24
2023-02-22T23:16:24.327Z,11.25
2023-02-22T23:18:51.466Z,11.27
2023-02-22T23:21:24.364Z,11.27
2023-02-22T23:23:55.828Z,11.26
2023-02-22T23:26:22.574Z,11.26
2023-02-22T23:28:49.199Z,11.25
2023-02-22T23:31:18.021Z,11.25
2023-02-22T23:33:48.351Z,11.24
2023-02-22T23:36:16.341Z,11.22
2023-02-22T23:38:43.767Z,11.19
2023-02-22T23:41:12.924Z,11.16
2023-02-22T23:43:40.452Z,11.11
2023-02-22T23:46:10.861Z,11.09
2023-02-22T23:48:46.742Z,11.08
2023-02-22T23:51:16.355Z,11.08
2023-02-22T23:53:46.187Z,11.07
2023-02-22T23:56:15.150Z,11.05
2023-02-22T23:58:42.403Z,11.05
